Detall de PIREP

Printer-friendly versionPDF version

[2015/11/29 10:42:00]
Flight IATA:CT3122
Pilot Number:012
Company ICAO:CAT
Aircraft Type:DC3/A
PAX:19
Aircraft Registration:PAX
Departing Airport: LEPA
Destination Airport: LEZG
Alternate Airport:LEBL
Online: VATSIM
Route:DRAGO A29 PAPOS R80 MLA
Flight Level:F100
No Slew and time accel
No pause
Crash detect
Detect pilot in Cockpit between each 30 and 45 minutes
10:42 Zero fuel Weight: 20162 Lbs, Fuel Weight: 2731 Lbs
10:42 VATSIM:LEPA 291030Z 00000KT 9999 FEW028 15/10 Q1033 NOSIG
10:42 VATSIM:LEZG 291030Z 28013KT CAVOK 12/03 Q1034
10:44 Parking Brakes off
10:50 Take-off
10:50 Take off Weight: 22871 Lbs
10:50 Wind: 000º @ 000 Knots Heading: 239º
10:50 POS N39º 33´ 29´´ E002º 44´ 03´´
10:50 Gear Up: 082 Knots
10:50 Flaps:1 at 82 Knots
10:50 Flaps:0 at 86 Knots
11:02 TOC
11:02 Fuel Weight: 2545 Lb
11:05 Wind:324º@011 Knots Heading: 314º Ground Speed: 159 Knots Altitude 10587 ft
11:20 Wind:322º@023 Knots Heading: 336º Ground Speed: 141 Knots Altitude 10577 ft
11:35 Wind:320º@028 Knots Heading: 335º Ground Speed: 137 Knots Altitude 10583 ft
11:50 Wind:320º@028 Knots Heading: 301º Ground Speed: 138 Knots Altitude 10583 ft
12:05 Wind:320º@028 Knots Heading: 305º Ground Speed: 137 Knots Altitude 10547 ft
12:20 Wind:320º@021 Knots Heading: 303º Ground Speed: 144 Knots Altitude 10551 ft
12:23 TOD
12:23 Fuel Weight: 1652 Lb
12:26 Flaps:1 at 159 Knots
12:27 Gear Down: 157 Knots
12:27 Flaps:2 at 147 Knots
12:28 Flaps:3 at 118 Knots
12:30 TouchDown:Rate -127 ft/min Speed: 73 Knots
12:30 VATSIM:LEZG 291200Z 30015KT CAVOK 13/03 Q1033
12:30 Land
12:30 Wind:310º@015 Knots
12:30 Heading: 305º
12:30 Flight Duration: 01:40
12:30 Landing Weight: 21783 Lbs
12:30 POS N41º 39´ 30´´ W001º 00´ 55´´
12:32 Parking brakes on
12:32 Block to Block Duration: 01:48
12:32 Final Fuel: 1615 Lbls
12:32 Spent Fuel: 1115 Lbls
12:32 Flight Length: 227 NM
12:32 TOD Land Length: 15 NM

Exportar CSV

Powered by Drupal - Modified by Danger4k